Hovedside
METAR-TAF:

METAR-TAF

Lufthavner :

Kosrae, Mikronesia

breddegrad: 05-21N, lengdegrad: 162-57E, høyde over havet: 3 m

Gjeldene værobservasjon

Denne rapporten ble laget for 7 timer og 14 minutter siden, klokken 23:50 UTC
Vind 9 kt fra Øst-sørøst
Temperatur 31°C
Luftfuktighet 71%
Trykk 1009 hPa
Sikt: 16.1 km
Spredte skyer i en høyde av 2200 ft
Spredte skyer i en høyde av 13000 ft
Brutte skyer i en høyde av 30000 ft

METAR: PTSA 242350Z 11009KT 10SM SCT022 SCT130 BKN300 31/25 A2980 RMK LAST

Tid: 18:04 (07:04 UTC)

Varsel

Denne rapporten ble laget for 7 timer og 38 minutter siden, klokken 23:26 UTC
Varsel gyldig fra 25. klokken 00 UTC til 25. klokken 24 UTC
Vind 10 kt fra Øst
Sikt: 10 km
Spredte skyer i en høyde av 2000 ft
Spredte skyer i en høyde av 13000 ft
regnbyger i nærheten

TAF: PTSA 242326Z 2500/2524 10010KT P6SM VCSH SCT020 SCT130

Værobservasjoner og værvarsel for over 4000 flyplasser (METAR- og TAF-rapporter).

Tilgjengelige stasjoner er representert av de røde og gule prikkene på kartet.

Hold musepekeren over prikken for å se navnet på stasjonen.

Klikk så for å se værobservasjoner og -varsler.

For å forandre kartet kan du klikke på den grønne knappen med svart kryss for å zoome inn, på den grønne knappen med strek for å zoome ut, eller på de grønne pilene for å se tilstøtende kart.


METAR-TAF: